sensor_id;sensor_type;location;lat;lon;timestamp;P1;durP1;ratioP1;P2;durP2;ratioP2
33206;SDS011;19565;46.602;11.534;2023-04-12T00:01:42;17.60;;;16.80;;
33206;SDS011;19565;46.602;11.534;2023-04-12T00:04:10;18.13;;;17.23;;
33206;SDS011;19565;46.602;11.534;2023-04-12T00:06:40;17.90;;;17.00;;
33206;SDS011;19565;46.602;11.534;2023-04-12T00:09:08;18.13;;;17.23;;
33206;SDS011;19565;46.602;11.534;2023-04-12T00:11:36;18.20;;;17.30;;
33206;SDS011;19565;46.602;11.534;2023-04-12T00:14:04;18.10;;;17.20;;
33206;SDS011;19565;46.602;11.534;2023-04-12T00:16:32;18.47;;;17.57;;
33206;SDS011;19565;46.602;11.534;2023-04-12T00:19:02;19.30;;;17.57;;
33206;SDS011;19565;46.602;11.534;2023-04-12T00:21:31;18.17;;;17.27;;
33206;SDS011;19565;46.602;11.534;2023-04-12T00:23:59;17.70;;;16.90;;
33206;SDS011;19565;46.602;11.534;2023-04-12T00:26:27;18.30;;;17.40;;
33206;SDS011;19565;46.602;11.534;2023-04-12T00:28:55;18.70;;;17.80;;
33206;SDS011;19565;46.602;11.534;2023-04-12T00:31:23;18.37;;;17.47;;
33206;SDS011;19565;46.602;11.534;2023-04-12T00:33:52;18.40;;;17.50;;
33206;SDS011;19565;46.602;11.534;2023-04-12T00:36:21;18.40;;;17.50;;
33206;SDS011;19565;46.602;11.534;2023-04-12T00:38:49;18.60;;;17.70;;
33206;SDS011;19565;46.602;11.534;2023-04-12T00:41:17;18.40;;;17.50;;
33206;SDS011;19565;46.602;11.534;2023-04-12T00:43:46;18.33;;;17.43;;
33206;SDS011;19565;46.602;11.534;2023-04-12T00:46:15;18.10;;;17.20;;
33206;SDS011;19565;46.602;11.534;2023-04-12T00:48:45;18.27;;;17.37;;
33206;SDS011;19565;46.602;11.534;2023-04-12T00:51:13;18.80;;;17.90;;
33206;SDS011;19565;46.602;11.534;2023-04-12T00:53:44;18.17;;;17.27;;
33206;SDS011;19565;46.602;11.534;2023-04-12T00:56:13;18.20;;;17.30;;
33206;SDS011;19565;46.602;11.534;2023-04-12T00:58:41;18.00;;;17.10;;
33206;SDS011;19565;46.602;11.534;2023-04-12T01:01:09;18.00;;;17.10;;
33206;SDS011;19565;46.602;11.534;2023-04-12T01:03:37;18.10;;;17.20;;
33206;SDS011;19565;46.602;11.534;2023-04-12T01:06:10;17.70;;;16.90;;
33206;SDS011;19565;46.602;11.534;2023-04-12T01:08:45;19.00;;;18.10;;
33206;SDS011;19565;46.602;11.534;2023-04-12T01:11:25;18.00;;;17.10;;
33206;SDS011;19565;46.602;11.534;2023-04-12T01:14:01;18.57;;;17.67;;
33206;SDS011;19565;46.602;11.534;2023-04-12T01:16:33;18.00;;;17.10;;
33206;SDS011;19565;46.602;11.534;2023-04-12T01:19:11;17.60;;;16.80;;
33206;SDS011;19565;46.602;11.534;2023-04-12T01:22:03;18.07;;;17.17;;
33206;SDS011;19565;46.602;11.534;2023-04-12T01:24:45;19.33;;;18.33;;
33206;SDS011;19565;46.602;11.534;2023-04-12T01:27:26;18.47;;;17.57;;
33206;SDS011;19565;46.602;11.534;2023-04-12T01:29:59;17.73;;;16.93;;
33206;SDS011;19565;46.602;11.534;2023-04-12T01:32:29;18.70;;;17.80;;
33206;SDS011;19565;46.602;11.534;2023-04-12T01:34:59;19.00;;;18.10;;
33206;SDS011;19565;46.602;11.534;2023-04-12T01:37:30;18.50;;;17.53;;
33206;SDS011;19565;46.602;11.534;2023-04-12T01:39:58;18.07;;;17.17;;
33206;SDS011;19565;46.602;11.534;2023-04-12T01:42:28;18.27;;;17.37;;
33206;SDS011;19565;46.602;11.534;2023-04-12T01:44:56;18.03;;;17.13;;
33206;SDS011;19565;46.602;11.534;2023-04-12T01:47:24;18.90;;;18.00;;
33206;SDS011;19565;46.602;11.534;2023-04-12T01:49:54;18.30;;;17.40;;
33206;SDS011;19565;46.602;11.534;2023-04-12T01:52:38;18.73;;;17.83;;
33206;SDS011;19565;46.602;11.534;2023-04-12T01:55:12;17.97;;;17.07;;
33206;SDS011;19565;46.602;11.534;2023-04-12T01:57:43;17.90;;;17.00;;
33206;SDS011;19565;46.602;11.534;2023-04-12T02:00:13;18.00;;;17.10;;
33206;SDS011;19565;46.602;11.534;2023-04-12T02:02:43;18.23;;;17.33;;
33206;SDS011;19565;46.602;11.534;2023-04-12T02:05:11;19.30;;;18.40;;
33206;SDS011;19565;46.602;11.534;2023-04-12T02:07:39;19.20;;;18.00;;
33206;SDS011;19565;46.602;11.534;2023-04-12T02:10:11;18.17;;;17.27;;
33206;SDS011;19565;46.602;11.534;2023-04-12T02:12:40;18.03;;;17.13;;
33206;SDS011;19565;46.602;11.534;2023-04-12T02:15:10;18.10;;;17.20;;
33206;SDS011;19565;46.602;11.534;2023-04-12T02:17:38;18.90;;;17.90;;
33206;SDS011;19565;46.602;11.534;2023-04-12T02:20:06;17.90;;;17.00;;
33206;SDS011;19565;46.602;11.534;2023-04-12T02:22:35;18.13;;;17.23;;
33206;SDS011;19565;46.602;11.534;2023-04-12T02:25:04;18.50;;;17.60;;
33206;SDS011;19565;46.602;11.534;2023-04-12T02:27:32;18.50;;;17.40;;
33206;SDS011;19565;46.602;11.534;2023-04-12T02:30:03;18.10;;;17.20;;
33206;SDS011;19565;46.602;11.534;2023-04-12T02:32:33;18.07;;;17.17;;
33206;SDS011;19565;46.602;11.534;2023-04-12T02:35:09;18.30;;;17.40;;
33206;SDS011;19565;46.602;11.534;2023-04-12T02:37:38;17.63;;;16.83;;
33206;SDS011;19565;46.602;11.534;2023-04-12T02:40:09;18.33;;;17.43;;
33206;SDS011;19565;46.602;11.534;2023-04-12T02:42:38;18.77;;;17.87;;
33206;SDS011;19565;46.602;11.534;2023-04-12T02:45:06;17.70;;;16.90;;
33206;SDS011;19565;46.602;11.534;2023-04-12T02:47:36;18.23;;;17.33;;
33206;SDS011;19565;46.602;11.534;2023-04-12T02:50:06;19.10;;;18.20;;
33206;SDS011;19565;46.602;11.534;2023-04-12T02:52:35;18.40;;;17.50;;
33206;SDS011;19565;46.602;11.534;2023-04-12T02:55:03;19.27;;;18.37;;
33206;SDS011;19565;46.602;11.534;2023-04-12T02:57:31;18.40;;;17.50;;
33206;SDS011;19565;46.602;11.534;2023-04-12T03:00:00;17.57;;;16.77;;
33206;SDS011;19565;46.602;11.534;2023-04-12T03:02:32;18.80;;;17.90;;
33206;SDS011;19565;46.602;11.534;2023-04-12T03:05:02;18.77;;;17.87;;
33206;SDS011;19565;46.602;11.534;2023-04-12T03:07:34;19.30;;;18.40;;
33206;SDS011;19565;46.602;11.534;2023-04-12T03:10:02;18.07;;;17.17;;
33206;SDS011;19565;46.602;11.534;2023-04-12T03:12:32;17.70;;;16.87;;
33206;SDS011;19565;46.602;11.534;2023-04-12T03:15:00;18.43;;;17.53;;
33206;SDS011;19565;46.602;11.534;2023-04-12T03:17:28;18.63;;;17.73;;
33206;SDS011;19565;46.602;11.534;2023-04-12T03:20:03;18.67;;;17.77;;
33206;SDS011;19565;46.602;11.534;2023-04-12T03:22:33;18.90;;;18.00;;
33206;SDS011;19565;46.602;11.534;2023-04-12T03:25:02;18.90;;;18.00;;
33206;SDS011;19565;46.602;11.534;2023-04-12T03:27:31;18.77;;;17.87;;
33206;SDS011;19565;46.602;11.534;2023-04-12T03:29:59;18.90;;;18.00;;
33206;SDS011;19565;46.602;11.534;2023-04-12T03:32:27;18.73;;;17.83;;
33206;SDS011;19565;46.602;11.534;2023-04-12T03:34:55;18.80;;;17.90;;
33206;SDS011;19565;46.602;11.534;2023-04-12T03:37:24;17.80;;;16.97;;
33206;SDS011;19565;46.602;11.534;2023-04-12T03:39:52;18.37;;;17.47;;
33206;SDS011;19565;46.602;11.534;2023-04-12T03:42:20;18.53;;;17.63;;
33206;SDS011;19565;46.602;11.534;2023-04-12T03:44:58;126.17;;;120.87;;
33206;SDS011;19565;46.602;11.534;2023-04-12T03:47:27;44.87;;;43.07;;
33206;SDS011;19565;46.602;11.534;2023-04-12T03:50:00;48.83;;;46.93;;
33206;SDS011;19565;46.602;11.534;2023-04-12T03:52:39;63.87;;;61.37;;
33206;SDS011;19565;46.602;11.534;2023-04-12T03:55:07;62.70;;;60.30;;
33206;SDS011;19565;46.602;11.534;2023-04-12T03:57:37;61.47;;;59.07;;
33206;SDS011;19565;46.602;11.534;2023-04-12T04:00:14;61.27;;;58.87;;
33206;SDS011;19565;46.602;11.534;2023-04-12T04:02:43;74.33;;;71.50;;
33206;SDS011;19565;46.602;11.534;2023-04-12T04:05:12;59.60;;;57.30;;
33206;SDS011;19565;46.602;11.534;2023-04-12T04:07:42;58.33;;;56.03;;
33206;SDS011;19565;46.602;11.534;2023-04-12T04:10:12;59.67;;;57.37;;
33206;SDS011;19565;46.602;11.534;2023-04-12T04:12:40;61.33;;;58.93;;
33206;SDS011;19565;46.602;11.534;2023-04-12T04:15:08;62.07;;;59.67;;
33206;SDS011;19565;46.602;11.534;2023-04-12T04:17:37;59.93;;;57.63;;
33206;SDS011;19565;46.602;11.534;2023-04-12T04:20:05;56.93;;;54.63;;
33206;SDS011;19565;46.602;11.534;2023-04-12T04:22:34;59.07;;;56.77;;
33206;SDS011;19565;46.602;11.534;2023-04-12T04:25:05;60.67;;;58.27;;
33206;SDS011;19565;46.602;11.534;2023-04-12T04:27:39;61.87;;;59.47;;
33206;SDS011;19565;46.602;11.534;2023-04-12T04:30:10;55.17;;;52.97;;
33206;SDS011;19565;46.602;11.534;2023-04-12T04:32:40;72.60;;;69.70;;
33206;SDS011;19565;46.602;11.534;2023-04-12T04:35:08;75.40;;;72.50;;
33206;SDS011;19565;46.602;11.534;2023-04-12T04:37:37;79.70;;;76.57;;
33206;SDS011;19565;46.602;11.534;2023-04-12T04:40:07;60.13;;;57.53;;
33206;SDS011;19565;46.602;11.534;2023-04-12T04:42:37;66.67;;;63.97;;
33206;SDS011;19565;46.602;11.534;2023-04-12T04:45:05;72.60;;;69.70;;
33206;SDS011;19565;46.602;11.534;2023-04-12T04:47:39;68.47;;;65.77;;
33206;SDS011;19565;46.602;11.534;2023-04-12T04:50:07;67.73;;;65.03;;
33206;SDS011;19565;46.602;11.534;2023-04-12T04:52:35;70.70;;;67.90;;
33206;SDS011;19565;46.602;11.534;2023-04-12T04:55:05;39.67;;;38.07;;
33206;SDS011;19565;46.602;11.534;2023-04-12T04:57:37;34.37;;;32.97;;
33206;SDS011;19565;46.602;11.534;2023-04-12T05:00:06;30.80;;;29.50;;
33206;SDS011;19565;46.602;11.534;2023-04-12T05:02:36;30.67;;;29.27;;
33206;SDS011;19565;46.602;11.534;2023-04-12T05:05:08;26.30;;;25.10;;
33206;SDS011;19565;46.602;11.534;2023-04-12T05:07:38;28.20;;;27.00;;
33206;SDS011;19565;46.602;11.534;2023-04-12T05:10:09;28.10;;;26.90;;
33206;SDS011;19565;46.602;11.534;2023-04-12T05:12:38;28.77;;;27.57;;
33206;SDS011;19565;46.602;11.534;2023-04-12T05:15:07;27.23;;;26.03;;
33206;SDS011;19565;46.602;11.534;2023-04-12T05:17:39;28.80;;;27.43;;
33206;SDS011;19565;46.602;11.534;2023-04-12T05:20:07;28.80;;;27.53;;
33206;SDS011;19565;46.602;11.534;2023-04-12T05:22:37;27.80;;;26.00;;
33206;SDS011;19565;46.602;11.534;2023-04-12T05:25:05;27.40;;;26.00;;
33206;SDS011;19565;46.602;11.534;2023-04-12T05:27:33;36.50;;;34.90;;
33206;SDS011;19565;46.602;11.534;2023-04-12T05:30:03;39.47;;;37.77;;
33206;SDS011;19565;46.602;11.534;2023-04-12T05:32:33;44.33;;;42.53;;
33206;SDS011;19565;46.602;11.534;2023-04-12T05:35:01;44.67;;;42.87;;
33206;SDS011;19565;46.602;11.534;2023-04-12T05:37:29;52.73;;;50.63;;
33206;SDS011;19565;46.602;11.534;2023-04-12T05:39:57;47.17;;;45.27;;
33206;SDS011;19565;46.602;11.534;2023-04-12T05:42:25;48.93;;;46.93;;
33206;SDS011;19565;46.602;11.534;2023-04-12T05:44:53;41.37;;;39.70;;
33206;SDS011;19565;46.602;11.534;2023-04-12T05:47:23;45.90;;;44.10;;
33206;SDS011;19565;46.602;11.534;2023-04-12T05:49:52;43.20;;;41.50;;
33206;SDS011;19565;46.602;11.534;2023-04-12T05:52:20;40.23;;;38.63;;
33206;SDS011;19565;46.602;11.534;2023-04-12T05:54:48;39.13;;;37.53;;
33206;SDS011;19565;46.602;11.534;2023-04-12T05:57:16;48.37;;;46.47;;
33206;SDS011;19565;46.602;11.534;2023-04-12T05:59:44;47.20;;;45.30;;
33206;SDS011;19565;46.602;11.534;2023-04-12T06:02:12;41.73;;;40.03;;
33206;SDS011;19565;46.602;11.534;2023-04-12T06:04:42;46.10;;;44.30;;
33206;SDS011;19565;46.602;11.534;2023-04-12T06:07:17;50.97;;;48.97;;
33206;SDS011;19565;46.602;11.534;2023-04-12T06:09:45;40.40;;;38.80;;
33206;SDS011;19565;46.602;11.534;2023-04-12T06:12:15;38.10;;;36.50;;
33206;SDS011;19565;46.602;11.534;2023-04-12T06:14:43;38.00;;;36.50;;
33206;SDS011;19565;46.602;11.534;2023-04-12T06:17:11;57.07;;;54.77;;
33206;SDS011;19565;46.602;11.534;2023-04-12T06:19:39;59.90;;;57.50;;
33206;SDS011;19565;46.602;11.534;2023-04-12T06:22:13;58.93;;;56.63;;
33206;SDS011;19565;46.602;11.534;2023-04-12T06:24:42;57.53;;;55.23;;
33206;SDS011;19565;46.602;11.534;2023-04-12T06:27:10;81.80;;;78.60;;
33206;SDS011;19565;46.602;11.534;2023-04-12T06:29:38;63.17;;;60.67;;
33206;SDS011;19565;46.602;11.534;2023-04-12T06:32:06;61.97;;;59.47;;
33206;SDS011;19565;46.602;11.534;2023-04-12T06:34:34;58.03;;;55.73;;
33206;SDS011;19565;46.602;11.534;2023-04-12T06:37:03;62.50;;;59.80;;
33206;SDS011;19565;46.602;11.534;2023-04-12T06:39:31;55.13;;;52.93;;
33206;SDS011;19565;46.602;11.534;2023-04-12T06:41:59;51.10;;;49.00;;
33206;SDS011;19565;46.602;11.534;2023-04-12T06:44:27;64.20;;;61.63;;
33206;SDS011;19565;46.602;11.534;2023-04-12T06:46:56;46.00;;;44.10;;
33206;SDS011;19565;46.602;11.534;2023-04-12T06:49:24;50.13;;;48.07;;
33206;SDS011;19565;46.602;11.534;2023-04-12T06:51:52;49.10;;;47.10;;
33206;SDS011;19565;46.602;11.534;2023-04-12T06:54:21;50.10;;;48.00;;
33206;SDS011;19565;46.602;11.534;2023-04-12T06:56:50;33.50;;;32.10;;
33206;SDS011;19565;46.602;11.534;2023-04-12T06:59:18;35.07;;;33.57;;
33206;SDS011;19565;46.602;11.534;2023-04-12T07:01:46;28.47;;;27.27;;
33206;SDS011;19565;46.602;11.534;2023-04-12T07:04:14;29.60;;;28.30;;
33206;SDS011;19565;46.602;11.534;2023-04-12T07:06:43;36.23;;;34.73;;
33206;SDS011;19565;46.602;11.534;2023-04-12T07:09:11;36.80;;;35.20;;
33206;SDS011;19565;46.602;11.534;2023-04-12T07:11:40;40.90;;;39.27;;
33206;SDS011;19565;46.602;11.534;2023-04-12T07:14:08;41.13;;;39.50;;
33206;SDS011;19565;46.602;11.534;2023-04-12T07:16:36;43.30;;;41.60;;
33206;SDS011;19565;46.602;11.534;2023-04-12T07:19:04;40.17;;;38.57;;
33206;SDS011;19565;46.602;11.534;2023-04-12T07:21:33;42.17;;;40.47;;
33206;SDS011;19565;46.602;11.534;2023-04-12T07:24:01;39.87;;;38.27;;
33206;SDS011;19565;46.602;11.534;2023-04-12T07:26:29;42.23;;;40.53;;
33206;SDS011;19565;46.602;11.534;2023-04-12T07:28:59;40.60;;;38.83;;
33206;SDS011;19565;46.602;11.534;2023-04-12T07:31:27;32.53;;;31.03;;
33206;SDS011;19565;46.602;11.534;2023-04-12T07:33:55;31.33;;;29.70;;
33206;SDS011;19565;46.602;11.534;2023-04-12T07:36:24;41.73;;;40.03;;
33206;SDS011;19565;46.602;11.534;2023-04-12T07:38:52;43.17;;;41.47;;
33206;SDS011;19565;46.602;11.534;2023-04-12T07:41:22;48.13;;;46.23;;
33206;SDS011;19565;46.602;11.534;2023-04-12T07:43:50;45.33;;;43.53;;
33206;SDS011;19565;46.602;11.534;2023-04-12T07:46:19;46.23;;;44.43;;
33206;SDS011;19565;46.602;11.534;2023-04-12T07:48:47;60.33;;;58.03;;
33206;SDS011;19565;46.602;11.534;2023-04-12T07:51:15;59.20;;;56.90;;
33206;SDS011;19565;46.602;11.534;2023-04-12T07:53:43;62.60;;;60.20;;
33206;SDS011;19565;46.602;11.534;2023-04-12T07:56:13;45.07;;;43.27;;
33206;SDS011;19565;46.602;11.534;2023-04-12T07:58:41;52.77;;;50.70;;
33206;SDS011;19565;46.602;11.534;2023-04-12T08:01:10;55.63;;;53.33;;
33206;SDS011;19565;46.602;11.534;2023-04-12T08:03:40;33.07;;;31.67;;
33206;SDS011;19565;46.602;11.534;2023-04-12T08:06:08;59.20;;;56.90;;
33206;SDS011;19565;46.602;11.534;2023-04-12T08:08:37;47.90;;;46.00;;
33206;SDS011;19565;46.602;11.534;2023-04-12T08:11:05;49.10;;;47.10;;
33206;SDS011;19565;46.602;11.534;2023-04-12T08:13:33;51.67;;;49.57;;
33206;SDS011;19565;46.602;11.534;2023-04-12T08:16:01;48.53;;;46.53;;
33206;SDS011;19565;46.602;11.534;2023-04-12T08:18:29;54.83;;;52.63;;
33206;SDS011;19565;46.602;11.534;2023-04-12T08:20:59;55.93;;;53.73;;
33206;SDS011;19565;46.602;11.534;2023-04-12T08:23:27;43.07;;;41.37;;
33206;SDS011;19565;46.602;11.534;2023-04-12T08:25:55;36.90;;;35.40;;
33206;SDS011;19565;46.602;11.534;2023-04-12T08:28:28;37.50;;;36.00;;
33206;SDS011;19565;46.602;11.534;2023-04-12T08:30:57;54.80;;;52.70;;
33206;SDS011;19565;46.602;11.534;2023-04-12T08:33:25;48.20;;;46.30;;
33206;SDS011;19565;46.602;11.534;2023-04-12T08:35:53;31.37;;;30.07;;
33206;SDS011;19565;46.602;11.534;2023-04-12T08:38:23;27.67;;;26.47;;
33206;SDS011;19565;46.602;11.534;2023-04-12T08:41:10;37.95;;;36.35;;
33206;SDS011;19565;46.602;11.534;2023-04-12T08:43:40;37.13;;;35.63;;
33206;SDS011;19565;46.602;11.534;2023-04-12T08:46:11;33.73;;;32.33;;
33206;SDS011;19565;46.602;11.534;2023-04-12T08:48:41;34.27;;;32.87;;
33206;SDS011;19565;46.602;11.534;2023-04-12T08:51:12;38.23;;;36.73;;
33206;SDS011;19565;46.602;11.534;2023-04-12T08:53:42;43.13;;;41.43;;
33206;SDS011;19565;46.602;11.534;2023-04-12T08:56:11;38.27;;;36.67;;
33206;SDS011;19565;46.602;11.534;2023-04-12T08:58:40;33.93;;;32.53;;
33206;SDS011;19565;46.602;11.534;2023-04-12T09:01:11;68.73;;;66.00;;
33206;SDS011;19565;46.602;11.534;2023-04-12T09:03:41;64.80;;;62.30;;
33206;SDS011;19565;46.602;11.534;2023-04-12T09:06:10;56.97;;;54.67;;
33206;SDS011;19565;46.602;11.534;2023-04-12T09:08:50;51.37;;;49.27;;
33206;SDS011;19565;46.602;11.534;2023-04-12T09:11:23;60.50;;;58.00;;
33206;SDS011;19565;46.602;11.534;2023-04-12T09:13:53;59.73;;;57.33;;
33206;SDS011;19565;46.602;11.534;2023-04-12T09:16:34;49.23;;;47.20;;
33206;SDS011;19565;46.602;11.534;2023-04-12T09:19:04;49.13;;;47.13;;
33206;SDS011;19565;46.602;11.534;2023-04-12T09:21:33;58.80;;;56.40;;
33206;SDS011;19565;46.602;11.534;2023-04-12T09:24:04;57.70;;;55.40;;
33206;SDS011;19565;46.602;11.534;2023-04-12T09:26:40;51.43;;;49.33;;
33206;SDS011;19565;46.602;11.534;2023-04-12T09:29:20;54.53;;;52.17;;
33206;SDS011;19565;46.602;11.534;2023-04-12T09:31:54;62.63;;;59.17;;
33206;SDS011;19565;46.602;11.534;2023-04-12T09:34:23;62.43;;;59.93;;
33206;SDS011;19565;46.602;11.534;2023-04-12T09:36:53;60.50;;;58.10;;
33206;SDS011;19565;46.602;11.534;2023-04-12T09:39:30;55.20;;;53.00;;
33206;SDS011;19565;46.602;11.534;2023-04-12T09:42:02;58.80;;;56.43;;
33206;SDS011;19565;46.602;11.534;2023-04-12T09:44:43;63.03;;;60.53;;
33206;SDS011;19565;46.602;11.534;2023-04-12T09:47:11;54.03;;;51.83;;
33206;SDS011;19565;46.602;11.534;2023-04-12T09:49:40;54.07;;;51.87;;
33206;SDS011;19565;46.602;11.534;2023-04-12T09:52:09;52.10;;;50.00;;
33206;SDS011;19565;46.602;11.534;2023-04-12T09:54:40;53.63;;;51.43;;
33206;SDS011;19565;46.602;11.534;2023-04-12T09:57:09;47.67;;;45.77;;
33206;SDS011;19565;46.602;11.534;2023-04-12T09:59:39;49.70;;;47.70;;
33206;SDS011;19565;46.602;11.534;2023-04-12T10:02:10;50.87;;;48.77;;
33206;SDS011;19565;46.602;11.534;2023-04-12T10:04:42;49.53;;;47.53;;
33206;SDS011;19565;46.602;11.534;2023-04-12T10:07:11;25.20;;;24.10;;
33206;SDS011;19565;46.602;11.534;2023-04-12T10:09:42;25.07;;;23.97;;
33206;SDS011;19565;46.602;11.534;2023-04-12T10:12:10;24.80;;;23.70;;
33206;SDS011;19565;46.602;11.534;2023-04-12T10:14:38;24.50;;;23.40;;
33206;SDS011;19565;46.602;11.534;2023-04-12T10:17:08;27.20;;;26.03;;
33206;SDS011;19565;46.602;11.534;2023-04-12T10:19:38;24.50;;;23.40;;
33206;SDS011;19565;46.602;11.534;2023-04-12T10:22:07;25.20;;;24.10;;
33206;SDS011;19565;46.602;11.534;2023-04-12T10:24:36;25.33;;;24.23;;
33206;SDS011;19565;46.602;11.534;2023-04-12T10:27:06;25.70;;;24.60;;
33206;SDS011;19565;46.602;11.534;2023-04-12T10:29:35;25.70;;;24.60;;
33206;SDS011;19565;46.602;11.534;2023-04-12T10:32:18;27.03;;;25.83;;
33206;SDS011;19565;46.602;11.534;2023-04-12T10:34:51;26.97;;;25.80;;
33206;SDS011;19565;46.602;11.534;2023-04-12T10:37:20;31.67;;;30.30;;
33206;SDS011;19565;46.602;11.534;2023-04-12T10:39:51;26.87;;;25.53;;
33206;SDS011;19565;46.602;11.534;2023-04-12T10:42:22;28.30;;;27.10;;
33206;SDS011;19565;46.602;11.534;2023-04-12T10:44:53;29.48;;;28.17;;
33206;SDS011;19565;46.602;11.534;2023-04-12T10:50:22;51.47;;;49.37;;
33206;SDS011;19565;46.602;11.534;2023-04-12T10:55:48;48.38;;;46.38;;
33206;SDS011;19565;46.602;11.534;2023-04-12T11:01:28;61.22;;;58.83;;
33206;SDS011;19565;46.602;11.534;2023-04-12T11:04:16;60.92;;;58.53;;
33206;SDS011;19565;46.602;11.534;2023-04-12T11:06:47;55.47;;;53.27;;
33206;SDS011;19565;46.602;11.534;2023-04-12T11:09:25;32.20;;;30.90;;
33206;SDS011;19565;46.602;11.534;2023-04-12T11:11:55;28.20;;;27.00;;
33206;SDS011;19565;46.602;11.534;2023-04-12T11:14:33;29.13;;;27.92;;
33206;SDS011;19565;46.602;11.534;2023-04-12T11:17:21;40.00;;;38.40;;
33206;SDS011;19565;46.602;11.534;2023-04-12T11:19:55;34.10;;;32.70;;
33206;SDS011;19565;46.602;11.534;2023-04-12T11:22:25;25.00;;;23.87;;
33206;SDS011;19565;46.602;11.534;2023-04-12T11:24:55;24.60;;;23.45;;
33206;SDS011;19565;46.602;11.534;2023-04-12T11:27:25;28.45;;;27.25;;
33206;SDS011;19565;46.602;11.534;2023-04-12T11:29:55;30.30;;;29.00;;
33206;SDS011;19565;46.602;11.534;2023-04-12T11:32:25;32.75;;;31.35;;
33206;SDS011;19565;46.602;11.534;2023-04-12T11:34:54;25.70;;;24.60;;
33206;SDS011;19565;46.602;11.534;2023-04-12T11:37:23;23.50;;;22.50;;
33206;SDS011;19565;46.602;11.534;2023-04-12T11:39:54;27.40;;;26.20;;
33206;SDS011;19565;46.602;11.534;2023-04-12T11:42:24;26.67;;;25.57;;
33206;SDS011;19565;46.602;11.534;2023-04-12T11:44:55;26.50;;;25.40;;
33206;SDS011;19565;46.602;11.534;2023-04-12T11:47:34;29.50;;;28.25;;
33206;SDS011;19565;46.602;11.534;2023-04-12T11:50:08;28.10;;;26.90;;
33206;SDS011;19565;46.602;11.534;2023-04-12T11:52:37;23.90;;;22.90;;
33206;SDS011;19565;46.602;11.534;2023-04-12T11:55:06;48.67;;;46.47;;
33206;SDS011;19565;46.602;11.534;2023-04-12T11:57:37;25.17;;;24.07;;
33206;SDS011;19565;46.602;11.534;2023-04-12T12:00:07;30.27;;;28.98;;
33206;SDS011;19565;46.602;11.534;2023-04-12T12:02:36;34.65;;;33.25;;
33206;SDS011;19565;46.602;11.534;2023-04-12T12:05:17;26.80;;;25.60;;
33206;SDS011;19565;46.602;11.534;2023-04-12T12:07:47;34.20;;;32.70;;
33206;SDS011;19565;46.602;11.534;2023-04-12T12:10:16;51.10;;;48.95;;
33206;SDS011;19565;46.602;11.534;2023-04-12T12:13:08;35.45;;;34.05;;
33206;SDS011;19565;46.602;11.534;2023-04-12T12:15:38;32.78;;;31.38;;
33206;SDS011;19565;46.602;11.534;2023-04-12T12:18:10;31.60;;;30.30;;
33206;SDS011;19565;46.602;11.534;2023-04-12T12:20:38;42.05;;;40.25;;
33206;SDS011;19565;46.602;11.534;2023-04-12T12:23:07;55.92;;;53.83;;
33206;SDS011;19565;46.602;11.534;2023-04-12T12:25:46;43.72;;;41.97;;
33206;SDS011;19565;46.602;11.534;2023-04-12T12:28:47;33.97;;;32.58;;
33206;SDS011;19565;46.602;11.534;2023-04-12T12:31:19;36.42;;;34.92;;
33206;SDS011;19565;46.602;11.534;2023-04-12T12:33:48;38.78;;;36.13;;
33206;SDS011;19565;46.602;11.534;2023-04-12T12:36:27;25.58;;;24.48;;
33206;SDS011;19565;46.602;11.534;2023-04-12T12:39:01;24.92;;;23.83;;
33206;SDS011;19565;46.602;11.534;2023-04-12T12:41:32;25.80;;;24.70;;
33206;SDS011;19565;46.602;11.534;2023-04-12T12:44:01;31.77;;;30.48;;
33206;SDS011;19565;46.602;11.534;2023-04-12T12:46:30;21.70;;;20.70;;
33206;SDS011;19565;46.602;11.534;2023-04-12T12:49:02;27.00;;;25.80;;
33206;SDS011;19565;46.602;11.534;2023-04-12T12:51:30;29.08;;;27.70;;
33206;SDS011;19565;46.602;11.534;2023-04-12T12:53:58;28.55;;;27.35;;
33206;SDS011;19565;46.602;11.534;2023-04-12T12:56:26;27.38;;;26.20;;
33206;SDS011;19565;46.602;11.534;2023-04-12T12:58:55;27.45;;;26.25;;
33206;SDS011;19565;46.602;11.534;2023-04-12T13:01:23;34.78;;;32.95;;
33206;SDS011;19565;46.602;11.534;2023-04-12T13:03:54;30.58;;;29.27;;
33206;SDS011;19565;46.602;11.534;2023-04-12T13:06:24;37.15;;;35.65;;
33206;SDS011;19565;46.602;11.534;2023-04-12T13:08:53;32.78;;;31.40;;
33206;SDS011;19565;46.602;11.534;2023-04-12T13:11:22;41.25;;;39.60;;
33206;SDS011;19565;46.602;11.534;2023-04-12T13:13:50;43.10;;;41.40;;
33206;SDS011;19565;46.602;11.534;2023-04-12T13:16:18;29.27;;;27.98;;
33206;SDS011;19565;46.602;11.534;2023-04-12T13:18:46;34.00;;;32.50;;
33206;SDS011;19565;46.602;11.534;2023-04-12T13:21:15;34.05;;;32.40;;
33206;SDS011;19565;46.602;11.534;2023-04-12T13:23:43;32.50;;;31.02;;
33206;SDS011;19565;46.602;11.534;2023-04-12T13:26:11;28.92;;;27.73;;
33206;SDS011;19565;46.602;11.534;2023-04-12T13:28:39;32.70;;;31.30;;
33206;SDS011;19565;46.602;11.534;2023-04-12T13:31:07;33.42;;;32.03;;
33206;SDS011;19565;46.602;11.534;2023-04-12T13:33:35;33.78;;;32.38;;
33206;SDS011;19565;46.602;11.534;2023-04-12T13:36:03;41.30;;;39.45;;
33206;SDS011;19565;46.602;11.534;2023-04-12T13:38:33;30.75;;;29.45;;
33206;SDS011;19565;46.602;11.534;2023-04-12T13:41:01;27.38;;;25.83;;
33206;SDS011;19565;46.602;11.534;2023-04-12T13:43:29;32.03;;;30.67;;
33206;SDS011;19565;46.602;11.534;2023-04-12T13:45:57;31.60;;;30.20;;
33206;SDS011;19565;46.602;11.534;2023-04-12T13:48:25;32.88;;;31.52;;
33206;SDS011;19565;46.602;11.534;2023-04-12T13:50:54;35.47;;;33.88;;
33206;SDS011;19565;46.602;11.534;2023-04-12T13:53:22;37.60;;;36.00;;
33206;SDS011;19565;46.602;11.534;2023-04-12T13:55:51;37.25;;;35.75;;
33206;SDS011;19565;46.602;11.534;2023-04-12T13:58:19;34.63;;;33.13;;
33206;SDS011;19565;46.602;11.534;2023-04-12T14:00:47;35.85;;;34.17;;
33206;SDS011;19565;46.602;11.534;2023-04-12T14:03:15;43.20;;;41.47;;
33206;SDS011;19565;46.602;11.534;2023-04-12T14:05:43;41.67;;;39.88;;
33206;SDS011;19565;46.602;11.534;2023-04-12T14:08:12;39.28;;;37.58;;
33206;SDS011;19565;46.602;11.534;2023-04-12T14:10:40;40.35;;;38.55;;
33206;SDS011;19565;46.602;11.534;2023-04-12T14:13:09;39.63;;;38.03;;
33206;SDS011;19565;46.602;11.534;2023-04-12T14:15:37;44.85;;;42.92;;
33206;SDS011;19565;46.602;11.534;2023-04-12T14:18:05;41.30;;;39.50;;
33206;SDS011;19565;46.602;11.534;2023-04-12T14:20:33;35.10;;;33.60;;
33206;SDS011;19565;46.602;11.534;2023-04-12T14:23:01;24.42;;;23.23;;
33206;SDS011;19565;46.602;11.534;2023-04-12T14:25:33;34.83;;;33.22;;
33206;SDS011;19565;46.602;11.534;2023-04-12T14:28:02;46.45;;;44.55;;
33206;SDS011;19565;46.602;11.534;2023-04-12T14:30:31;30.83;;;29.52;;
33206;SDS011;19565;46.602;11.534;2023-04-12T14:32:59;42.58;;;40.88;;
33206;SDS011;19565;46.602;11.534;2023-04-12T14:35:27;34.55;;;33.03;;